Mendota, IL

1:25 AM CDT on June 23, 2017 (GMT -0500)
Northbrook | | Change Station

Elev 778 ft 41.56 °N, 89.12 °W | Updated 9 seconds ago

Overcast
Overcast
75.4 °F
Feels Like 74 °F
N
3.4
Wind Variable Wind from SSW
Gusts 4.9 mph

Today
High -- | Low -- °F
--% Chance of Precip.
Yesterday
High -- | Low -- °F
Precip. -- in
Pressure 29.69 in
Visibility 10.0 miles
Clouds Overcast 1000 ft
Heat Index 74 °F
Dew Point 74 °F
Humidity 95%
Rainfall 0.00 in
Snow Depth Not available.
5:23 AM 8:34 PM
Waning Crescent, 1% visible
METAR KVYS 230615Z AUTO 19011KT 10SM OVC010 23/22 A2969 RMK AO2 T02310216
Pressure 29.69 in
Visibility 10.0 miles
Clouds Overcast 1000 ft
Heat Index 74 °F
Dew Point 74 °F
Humidity 95%
Rainfall 0.00 in
Snow Depth Not available.
5:23 AM 8:34 PM
Waning Crescent, 1% visible
METAR KVYS 230615Z AUTO 19011KT 10SM OVC010 23/22 A2969 RMK AO2 T02310216

Get Severe Weather Alerts

Thanks for signing up!

Be on the lookout for a verification email in your inbox.

You'll start receiving the daily forecast at 6 AM.

×

10-Day Weather Forecast

Almanac

Astronomy

Jun. 23, 2017 Rise Set
Actual Time
Civil Twilight
Nautical Twilight
Astronomical Twilight
Moon
Length of Visible Light
Length of Day
Tomorrow will be .
, % of the Moon is Illuminated

Today's Extremes

State Highs State Lows

Community

WunderPhotos

Category 6

Welcome to Category 6. This is the collective home for Weather Underground's featured writeups by Dr. Jeff Masters (right), Bob Henson (left), Chris Burt, and other regular contributors.

Nearby

Air Quality

  Air Quality AQ Index Pollutant
Not available.

Snow Depth

Station Depth Elevation

Earthquake Activity

City Distance Mag. Time & Date
Minimum magnitude displayed is 2.5.

Coastal Water Temperatures

Place Temperature

Stations

Nearby Weather Stations

Station Location Temp. Windchill Dew Point Humidity Wind Precip. Elev Updated Type
                   

Watches & Warnings

There are currently no watches in effect.